20:25
Airports
History
Links
Donate
Help keep this website running!
PayPal
Bitcoin
Information on this page is community maintained and may be outdated or inaccurate and is intended for reference only or PC simulator navigating.
Always use approved charts for navigating.
VEGK
GORAKHPUR
GORAKHPUR (VEGK)
Gorakhpur, Uttar Pradesh, India (273202)
(C)
Lat/Lng:26° 44' 22.95" N / 83° 26' 58.95" E
26.739709 / 83.449709
Elevation:259'ft 79mMSL
ID / ICAO:VEGK
Runways:1
Longest:(11-29) 2,735.9m 8,976ft Asphalt
Controlled:Yes
Distance To
Airport ID:
Airport Radio Frequencies
Tower: 118.5
Approach: 122.7
Nearby VORs <50NM
Nearby NDBs
METARUpdated 11-09-16 08:30 GMT
Altimeter: 29.88
Visibility: 2.2 statute miles
Wind: 3 knots (140°)
Temp: 30°c 86°f
Humidity: 37.7%

METAR: VEGK 090830Z 14003KT 3500 FU SKC 30/14 Q1012 BECMG 4000

(Powered by phpweather)
Runway 11 / 29
Dimensions:2735.9 x 45.7m 8976' x 150'ft
Surface:Asphalt
Edge Lights:Medium intensity
Runway 11 [A]Runway 29 [B]
Heading:113°TH 293°TH
Lat:
Lng:
26° 44' 40.4"N
83° 26' 13.3"E
26° 44' 5.5"N
83° 27' 44.6"E
User Notes and Comments
Google Map
Nearby Airports
(C) Bhairahawa / Gautam Buddha 53.0 NM
VNBW N 357°
(U) AKBARPUR 58.1 NM
VI90 WSW 249°
(C) MEGHAULI 75.1 NM
VNMG NE 39°
(C) Bharatpur 88.4 NM
VNBP NE 42°
(C) VARANASI 96.2 NM
VIBN (WX) SSW 202°
(C) SIMARA 98.6 NM
VNSI ENE 72°
4 Baglung 102.7 NM
VNBL N
VFR Chart
Flight Planning at SkyVector.com